createdAt,value
2022-08-02T00:00:40.922Z,16.02
2022-08-02T00:03:09.056Z,16.03
2022-08-02T00:05:37.382Z,16.05
2022-08-02T00:08:05.803Z,16.02
2022-08-02T00:10:35.580Z,16.11
2022-08-02T00:13:05.333Z,16.15
2022-08-02T00:15:33.781Z,16.15
2022-08-02T00:18:01.836Z,16.13
2022-08-02T00:20:30.760Z,16.08
2022-08-02T00:22:58.882Z,15.97
2022-08-02T00:25:28.790Z,15.98
2022-08-02T00:27:58.243Z,15.91
2022-08-02T00:30:26.549Z,15.86
2022-08-02T00:32:54.598Z,15.83
2022-08-02T00:35:22.638Z,15.80
2022-08-02T00:37:50.719Z,15.71
2022-08-02T00:40:23.400Z,15.61
2022-08-02T00:43:06.737Z,15.60
2022-08-02T00:46:02.297Z,15.60
2022-08-02T00:48:24.029Z,15.61
2022-08-02T00:51:23.803Z,15.54
2022-08-02T00:53:51.870Z,15.55
2022-08-02T00:56:26.541Z,15.45
2022-08-02T00:58:55.970Z,15.38
2022-08-02T01:01:38.610Z,15.29
2022-08-02T01:04:31.447Z,15.25
2022-08-02T01:07:13.318Z,15.22
2022-08-02T01:09:43.603Z,15.06
2022-08-02T01:12:12.855Z,14.90
2022-08-02T01:14:44.039Z,14.85
2022-08-02T01:17:17.692Z,14.76
2022-08-02T01:19:55.511Z,14.73
2022-08-02T01:23:07.125Z,14.72
2022-08-02T01:26:00.909Z,14.67
2022-08-02T01:28:39.212Z,14.68
2022-08-02T01:31:15.502Z,14.73
2022-08-02T01:33:49.759Z,14.84
2022-08-02T01:36:21.459Z,14.86
2022-08-02T01:38:51.836Z,14.83
2022-08-02T01:41:22.876Z,14.85
2022-08-02T01:43:59.522Z,14.83
2022-08-02T01:46:30.333Z,14.92
2022-08-02T01:49:01.057Z,14.90
2022-08-02T01:51:47.984Z,14.87
2022-08-02T01:54:19.588Z,14.85
2022-08-02T01:56:50.271Z,14.80
2022-08-02T01:59:37.036Z,14.76
2022-08-02T02:02:09.391Z,14.78
2022-08-02T02:04:39.325Z,14.67
2022-08-02T02:07:08.472Z,14.56
2022-08-02T02:09:47.875Z,14.42
2022-08-02T02:12:20.949Z,14.36
2022-08-02T02:14:52.248Z,14.31
2022-08-02T02:17:50.622Z,14.31
2022-08-02T02:20:15.022Z,14.22
2022-08-02T02:22:44.012Z,14.14
2022-08-02T02:25:15.518Z,14.09
2022-08-02T02:27:49.837Z,14.07
2022-08-02T02:30:20.063Z,14.05
2022-08-02T02:32:49.975Z,14.03
2022-08-02T02:35:20.617Z,14.02
2022-08-02T02:37:50.843Z,14.04
2022-08-02T02:40:21.205Z,14.08
2022-08-02T02:42:50.918Z,14.14
2022-08-02T02:45:22.368Z,14.17
2022-08-02T02:47:51.885Z,14.19
2022-08-02T02:50:21.843Z,14.19
2022-08-02T02:52:51.472Z,14.16
2022-08-02T02:55:20.196Z,14.14
2022-08-02T02:57:49.131Z,14.09
2022-08-02T03:00:17.677Z,14.02
2022-08-02T03:02:47.530Z,14.03
2022-08-02T03:05:16.933Z,14.03
2022-08-02T03:07:45.058Z,14.05
2022-08-02T03:10:13.295Z,14.12
2022-08-02T03:12:42.992Z,14.20
2022-08-02T03:15:14.193Z,14.30
2022-08-02T03:17:43.554Z,14.40
2022-08-02T03:20:15.668Z,14.46
2022-08-02T03:22:44.872Z,14.56
2022-08-02T03:25:14.496Z,14.64
2022-08-02T03:27:42.966Z,14.75
2022-08-02T03:30:15.636Z,14.86
2022-08-02T03:32:46.418Z,15.05
2022-08-02T03:35:23.433Z,15.23
2022-08-02T03:37:55.479Z,15.38
2022-08-02T03:40:24.274Z,15.47
2022-08-02T03:42:52.795Z,15.57
2022-08-02T03:45:21.472Z,15.63
2022-08-02T03:47:50.165Z,15.63
2022-08-02T03:50:23.056Z,15.46
2022-08-02T03:52:52.155Z,15.32
2022-08-02T03:55:20.437Z,15.25
2022-08-02T03:57:48.608Z,15.28
2022-08-02T04:00:22.608Z,15.43
2022-08-02T04:02:52.494Z,15.56
2022-08-02T04:05:22.240Z,15.68
2022-08-02T04:08:34.266Z,15.78
2022-08-02T04:11:04.852Z,15.86
2022-08-02T04:13:37.107Z,15.91
2022-08-02T04:16:09.727Z,15.87
2022-08-02T04:18:44.525Z,15.81
2022-08-02T04:21:18.722Z,15.84
2022-08-02T04:23:48.896Z,15.86
2022-08-02T04:26:17.670Z,15.92
2022-08-02T04:28:46.864Z,15.98
2022-08-02T04:31:15.752Z,15.97
2022-08-02T04:33:44.157Z,16.05
2022-08-02T04:36:15.155Z,16.06
2022-08-02T04:38:59.352Z,16.10
2022-08-02T04:41:43.758Z,16.08
2022-08-02T04:44:12.968Z,16.06
2022-08-02T04:46:42.921Z,16.06
2022-08-02T04:49:19.877Z,16.08
2022-08-02T04:51:49.315Z,16.19
2022-08-02T04:54:17.426Z,16.26
2022-08-02T04:56:45.507Z,16.29
2022-08-02T04:59:13.509Z,16.33
2022-08-02T05:01:42.627Z,16.46
2022-08-02T05:04:10.756Z,16.58
2022-08-02T05:06:38.760Z,16.69
2022-08-02T05:09:08.280Z,16.81
2022-08-02T05:11:37.452Z,16.89
2022-08-02T05:14:07.838Z,16.98
2022-08-02T05:16:37.057Z,17.01
2022-08-02T05:19:06.003Z,17.07
2022-08-02T05:21:34.062Z,17.20
2022-08-02T05:24:02.199Z,17.43
2022-08-02T05:26:31.691Z,17.50
2022-08-02T05:28:59.723Z,17.53
2022-08-02T05:31:27.686Z,17.65
2022-08-02T05:33:55.866Z,17.87
2022-08-02T05:36:24.108Z,18.16
2022-08-02T05:39:04.658Z,18.39
2022-08-02T05:41:34.413Z,18.72
2022-08-02T05:44:02.459Z,18.80
2022-08-02T05:46:30.608Z,18.91
2022-08-02T05:48:58.780Z,18.89
2022-08-02T05:51:32.485Z,18.77
2022-08-02T05:54:07.994Z,18.68
2022-08-02T05:56:44.776Z,18.78
2022-08-02T05:59:19.297Z,18.99
2022-08-02T06:01:50.222Z,19.02
2022-08-02T06:04:26.138Z,19.22
2022-08-02T06:07:22.840Z,19.53
2022-08-02T06:09:52.553Z,19.56
2022-08-02T06:12:26.436Z,19.59
2022-08-02T06:14:57.712Z,19.67
2022-08-02T06:17:26.491Z,19.58
2022-08-02T06:20:07.275Z,19.46
2022-08-02T06:22:39.514Z,19.39
2022-08-02T06:25:48.429Z,19.33
2022-08-02T06:27:59.132Z,19.54
2022-08-02T06:30:27.874Z,19.69
2022-08-02T06:32:56.618Z,19.77
2022-08-02T06:35:27.140Z,19.84
2022-08-02T06:38:16.627Z,19.90
2022-08-02T06:40:47.442Z,19.93
2022-08-02T06:43:20.012Z,20.04
2022-08-02T06:45:48.000Z,19.94
2022-08-02T06:48:16.148Z,19.84
2022-08-02T06:50:44.489Z,19.85
2022-08-02T06:53:13.416Z,19.85
2022-08-02T06:55:44.440Z,19.71
2022-08-02T06:58:13.319Z,19.64
2022-08-02T07:00:44.444Z,19.51
2022-08-02T07:03:12.562Z,19.49
2022-08-02T07:05:41.884Z,19.58
2022-08-02T07:08:10.064Z,19.82
2022-08-02T07:10:38.087Z,20.05
2022-08-02T07:13:06.228Z,20.15
2022-08-02T07:15:34.244Z,20.19
2022-08-02T07:18:03.729Z,20.22
2022-08-02T07:20:32.741Z,20.14
2022-08-02T07:23:03.973Z,20.22
2022-08-02T07:26:02.357Z,20.39
2022-08-02T07:28:24.302Z,20.58
2022-08-02T07:30:53.392Z,20.68
2022-08-02T07:33:37.819Z,20.80
2022-08-02T07:36:09.863Z,21.00
2022-08-02T07:38:45.478Z,21.20
2022-08-02T07:41:19.885Z,21.41
2022-08-02T07:43:49.898Z,21.53
2022-08-02T07:46:17.899Z,21.61
2022-08-02T07:48:48.536Z,21.62
2022-08-02T07:51:17.370Z,21.74
2022-08-02T07:53:51.105Z,21.91
2022-08-02T07:56:30.120Z,22.03
2022-08-02T07:58:58.145Z,22.00
2022-08-02T08:01:26.159Z,22.11
2022-08-02T08:04:05.755Z,22.26
2022-08-02T08:06:33.775Z,22.44
2022-08-02T08:09:01.793Z,22.66
2022-08-02T08:11:29.860Z,22.69
2022-08-02T08:13:58.142Z,22.73
2022-08-02T08:16:29.189Z,22.88
2022-08-02T08:18:57.695Z,23.12
2022-08-02T08:21:27.139Z,23.20
2022-08-02T08:23:58.890Z,23.27
2022-08-02T08:26:26.879Z,23.50
2022-08-02T08:29:10.895Z,23.70
2022-08-02T08:31:39.172Z,23.75
2022-08-02T08:34:07.559Z,23.90
2022-08-02T08:36:38.023Z,24.02
2022-08-02T08:39:06.321Z,23.89
2022-08-02T08:41:34.364Z,23.91
2022-08-02T08:44:19.146Z,24.15
2022-08-02T08:46:50.400Z,24.44
2022-08-02T08:49:26.793Z,24.52
2022-08-02T08:51:58.014Z,24.66
2022-08-02T08:54:29.201Z,24.69
2022-08-02T08:57:02.352Z,24.81
2022-08-02T08:59:30.403Z,24.90
2022-08-02T09:02:20.355Z,24.90
2022-08-02T09:04:55.303Z,24.85
2022-08-02T09:07:25.075Z,24.85
2022-08-02T09:09:53.073Z,24.91
2022-08-02T09:12:25.188Z,25.02
2022-08-02T09:14:55.019Z,25.20
2022-08-02T09:17:22.959Z,25.50
2022-08-02T09:20:08.571Z,25.77
2022-08-02T09:22:38.100Z,25.97
2022-08-02T09:25:16.560Z,26.14
2022-08-02T09:27:44.666Z,26.23
2022-08-02T09:30:16.853Z,26.32
2022-08-02T09:32:50.081Z,26.26
2022-08-02T09:36:06.335Z,26.24
2022-08-02T09:38:26.097Z,26.19
2022-08-02T09:40:54.853Z,25.95
2022-08-02T09:43:23.154Z,25.78
2022-08-02T09:45:51.176Z,25.57
2022-08-02T09:48:19.249Z,25.62
2022-08-02T09:50:47.475Z,25.74
2022-08-02T09:53:15.977Z,25.94
2022-08-02T09:55:56.190Z,26.15
2022-08-02T09:58:24.366Z,26.22
2022-08-02T10:00:56.188Z,26.19
2022-08-02T10:03:27.388Z,26.21
2022-08-02T10:06:04.750Z,26.09
2022-08-02T10:08:34.359Z,26.06
2022-08-02T10:11:06.213Z,25.98
2022-08-02T10:13:35.682Z,25.95
2022-08-02T10:16:06.275Z,25.94
2022-08-02T10:18:41.808Z,25.80
2022-08-02T10:21:15.604Z,25.74
2022-08-02T10:23:46.238Z,25.80
2022-08-02T10:26:20.305Z,25.70
2022-08-02T10:28:50.762Z,25.73
2022-08-02T10:31:25.202Z,25.82
2022-08-02T10:33:55.117Z,25.89
2022-08-02T10:36:27.351Z,25.97
2022-08-02T10:38:58.799Z,26.02
2022-08-02T10:41:45.189Z,26.03
2022-08-02T10:44:26.217Z,25.89
2022-08-02T10:47:35.410Z,25.70
2022-08-02T10:50:04.042Z,25.39
2022-08-02T10:52:32.684Z,25.21
2022-08-02T10:55:03.627Z,25.24
2022-08-02T10:57:48.783Z,25.25
2022-08-02T11:00:28.535Z,25.39
2022-08-02T11:02:56.670Z,25.52
2022-08-02T11:05:42.124Z,25.68
2022-08-02T11:08:21.020Z,25.79
2022-08-02T11:10:49.755Z,25.82
2022-08-02T11:13:20.827Z,25.96
2022-08-02T11:15:59.318Z,26.11
2022-08-02T11:19:00.925Z,26.11
2022-08-02T11:21:31.363Z,26.10
2022-08-02T11:24:29.437Z,25.96
2022-08-02T11:26:59.116Z,26.02
2022-08-02T11:29:38.410Z,26.11
2022-08-02T11:32:08.559Z,26.26
2022-08-02T11:34:38.209Z,26.46
2022-08-02T11:37:07.756Z,26.67
2022-08-02T11:39:37.326Z,26.91
2022-08-02T11:42:09.492Z,26.99
2022-08-02T11:44:42.647Z,27.13
2022-08-02T11:47:10.811Z,27.20
2022-08-02T11:49:39.292Z,27.30
2022-08-02T11:52:11.052Z,27.20
2022-08-02T11:54:43.243Z,27.28
2022-08-02T11:57:23.884Z,27.47
2022-08-02T11:59:54.177Z,27.50
2022-08-02T12:02:23.728Z,27.60
2022-08-02T12:04:57.909Z,27.65
2022-08-02T12:07:34.773Z,27.61
2022-08-02T12:10:21.421Z,27.58
2022-08-02T12:12:54.208Z,27.69
2022-08-02T12:15:37.420Z,27.72
2022-08-02T12:18:28.144Z,27.65
2022-08-02T12:20:57.289Z,27.61
2022-08-02T12:23:25.566Z,27.64
2022-08-02T12:26:25.368Z,27.74
2022-08-02T12:28:57.757Z,27.75
2022-08-02T12:31:55.842Z,27.76
2022-08-02T12:34:31.113Z,27.81
2022-08-02T12:37:07.246Z,27.80
2022-08-02T12:39:50.008Z,27.82
2022-08-02T12:42:19.461Z,27.72
2022-08-02T12:44:55.675Z,27.80
2022-08-02T12:47:23.796Z,27.74
2022-08-02T12:50:17.160Z,27.86
2022-08-02T12:52:47.050Z,27.96
2022-08-02T12:55:19.936Z,28.01
2022-08-02T12:58:00.374Z,28.00
2022-08-02T13:00:32.486Z,27.95
2022-08-02T13:03:01.720Z,27.80
2022-08-02T13:05:57.030Z,27.47
2022-08-02T13:08:22.056Z,27.41
2022-08-02T13:10:50.670Z,27.39
2022-08-02T13:13:46.040Z,27.38
2022-08-02T13:16:14.230Z,27.35
2022-08-02T13:18:42.579Z,27.48
2022-08-02T13:21:23.535Z,27.59
2022-08-02T13:23:59.399Z,27.67
2022-08-02T13:26:31.369Z,27.62
2022-08-02T13:29:00.861Z,27.65
2022-08-02T13:31:36.468Z,27.74
2022-08-02T13:34:06.503Z,27.86
2022-08-02T13:36:36.986Z,27.90
2022-08-02T13:39:05.862Z,27.99
2022-08-02T13:41:34.265Z,28.02
2022-08-02T13:44:10.016Z,28.03
2022-08-02T13:46:44.989Z,28.08
2022-08-02T13:49:19.901Z,27.98
2022-08-02T13:51:48.519Z,27.90
2022-08-02T13:54:20.868Z,27.97
2022-08-02T13:56:49.043Z,27.92
2022-08-02T13:59:56.446Z,27.84
2022-08-02T14:02:23.595Z,27.79
2022-08-02T14:04:51.686Z,27.77
2022-08-02T14:07:19.731Z,27.60
2022-08-02T14:09:48.063Z,27.51
2022-08-02T14:12:16.781Z,27.46
2022-08-02T14:14:46.771Z,27.45
2022-08-02T14:17:14.825Z,27.33
2022-08-02T14:19:42.897Z,27.29
2022-08-02T14:22:12.381Z,27.15
2022-08-02T14:24:41.718Z,27.18
2022-08-02T14:27:10.548Z,27.26
2022-08-02T14:29:38.531Z,27.29
2022-08-02T14:32:08.773Z,27.33
2022-08-02T14:34:36.859Z,27.26
2022-08-02T14:37:04.941Z,27.16
2022-08-02T14:39:43.162Z,27.09
2022-08-02T14:42:21.818Z,27.02
2022-08-02T14:44:49.878Z,26.93
2022-08-02T14:47:19.226Z,26.91
2022-08-02T14:49:50.062Z,26.89
2022-08-02T14:52:19.663Z,26.66
2022-08-02T14:54:47.748Z,26.59
2022-08-02T14:57:16.364Z,26.35
2022-08-02T14:59:44.597Z,26.10
2022-08-02T15:05:03.967Z,25.84
2022-08-02T15:07:31.985Z,25.85
2022-08-02T15:09:59.926Z,25.85
2022-08-02T15:12:29.768Z,25.77
2022-08-02T15:14:57.983Z,25.72
2022-08-02T15:17:44.802Z,25.58
2022-08-02T15:20:24.436Z,25.27
2022-08-02T15:22:53.036Z,25.11
2022-08-02T15:25:21.276Z,24.89
2022-08-02T15:27:49.456Z,24.85
2022-08-02T15:30:22.144Z,24.85
2022-08-02T15:32:53.136Z,24.87
2022-08-02T15:35:22.849Z,24.85
2022-08-02T15:37:50.888Z,24.86
2022-08-02T15:40:25.321Z,24.79
2022-08-02T15:42:53.615Z,24.82
2022-08-02T15:45:21.587Z,24.75
2022-08-02T15:47:50.702Z,24.67
2022-08-02T15:50:22.648Z,24.53
2022-08-02T15:52:52.239Z,24.34
2022-08-02T15:55:20.514Z,24.17
2022-08-02T15:57:48.539Z,24.12
2022-08-02T16:00:18.951Z,23.98
2022-08-02T16:02:47.742Z,23.93
2022-08-02T16:05:18.085Z,23.80
2022-08-02T16:07:46.879Z,23.66
2022-08-02T16:10:18.514Z,23.54
2022-08-02T16:12:48.162Z,23.39
2022-08-02T16:15:16.304Z,23.25
2022-08-02T16:17:49.020Z,23.12
2022-08-02T16:20:22.923Z,22.94
2022-08-02T16:22:50.934Z,22.83
2022-08-02T16:25:20.535Z,22.71
2022-08-02T16:27:59.596Z,22.61
2022-08-02T16:30:34.819Z,22.57
2022-08-02T16:33:03.071Z,22.51
2022-08-02T16:35:31.073Z,22.47
2022-08-02T16:37:59.192Z,22.39
2022-08-02T16:40:28.884Z,22.29
2022-08-02T16:42:56.873Z,22.28
2022-08-02T16:45:25.020Z,22.24
2022-08-02T16:47:55.799Z,22.22
2022-08-02T16:50:27.125Z,22.16
2022-08-02T16:52:57.134Z,22.09
2022-08-02T16:55:29.299Z,22.02
2022-08-02T16:58:01.174Z,21.91
2022-08-02T17:00:29.449Z,21.86
2022-08-02T17:02:59.169Z,21.84
2022-08-02T17:05:29.814Z,21.75
2022-08-02T17:08:17.313Z,21.67
2022-08-02T17:10:45.843Z,21.61
2022-08-02T17:13:20.647Z,21.52
2022-08-02T17:16:16.133Z,21.38
2022-08-02T17:18:42.578Z,21.33
2022-08-02T17:21:11.776Z,21.23
2022-08-02T17:24:06.339Z,21.24
2022-08-02T17:26:30.071Z,21.20
2022-08-02T17:29:17.950Z,21.14
2022-08-02T17:32:04.671Z,21.09
2022-08-02T17:34:34.785Z,21.03
2022-08-02T17:37:05.687Z,21.04
2022-08-02T17:39:44.209Z,21.07
2022-08-02T17:42:23.043Z,21.02
2022-08-02T17:44:54.125Z,21.03
2022-08-02T17:47:22.721Z,20.97
2022-08-02T17:50:01.394Z,20.92
2022-08-02T17:52:51.063Z,20.92
2022-08-02T17:55:19.877Z,20.89
2022-08-02T17:57:57.579Z,20.89
2022-08-02T18:00:34.093Z,20.89
2022-08-02T18:03:05.897Z,20.83
2022-08-02T18:05:40.165Z,20.85
2022-08-02T18:08:22.748Z,20.82
2022-08-02T18:10:53.758Z,20.74
2022-08-02T18:13:23.430Z,20.66
2022-08-02T18:15:59.351Z,20.53
2022-08-02T18:18:34.465Z,20.32
2022-08-02T18:21:15.349Z,20.16
2022-08-02T18:23:49.400Z,20.05
2022-08-02T18:26:20.741Z,19.89
2022-08-02T18:28:49.255Z,19.73
2022-08-02T18:31:22.993Z,19.53
2022-08-02T18:33:57.244Z,19.32
2022-08-02T18:36:29.254Z,19.24
2022-08-02T18:38:57.355Z,19.13
2022-08-02T18:41:25.561Z,19.01
2022-08-02T18:43:56.713Z,18.87
2022-08-02T18:46:30.373Z,18.82
2022-08-02T18:49:13.307Z,18.75
2022-08-02T18:51:43.503Z,18.63
2022-08-02T18:54:11.686Z,18.57
2022-08-02T18:56:47.220Z,18.49
2022-08-02T18:59:18.089Z,18.40
2022-08-02T19:01:50.763Z,18.34
2022-08-02T19:04:27.141Z,18.29
2022-08-02T19:06:56.615Z,18.32
2022-08-02T19:09:49.780Z,18.29
2022-08-02T19:12:31.747Z,18.29
2022-08-02T19:14:59.824Z,18.29
2022-08-02T19:17:55.198Z,18.27
2022-08-02T19:20:22.468Z,18.25
2022-08-02T19:22:53.835Z,18.32
2022-08-02T19:25:50.073Z,18.33
2022-08-02T19:28:26.066Z,18.34
2022-08-02T19:30:56.844Z,18.32
2022-08-02T19:34:05.938Z,18.32
2022-08-02T19:36:27.990Z,18.30
2022-08-02T19:38:58.340Z,18.33
2022-08-02T19:41:26.797Z,18.34
2022-08-02T19:44:25.538Z,18.39
2022-08-02T19:46:49.189Z,18.55
2022-08-02T19:49:39.245Z,18.64
2022-08-02T19:52:20.295Z,18.70
2022-08-02T19:54:54.624Z,18.64
2022-08-02T19:57:25.115Z,18.51
2022-08-02T19:59:54.115Z,18.39
2022-08-02T20:02:25.413Z,18.33
2022-08-02T20:04:55.100Z,18.33
2022-08-02T20:10:13.270Z,18.34
2022-08-02T20:12:54.953Z,18.60
2022-08-02T20:15:23.436Z,18.76
2022-08-02T20:18:11.485Z,18.85
2022-08-02T20:20:44.259Z,18.83
2022-08-02T20:23:34.026Z,18.82
2022-08-02T20:26:02.801Z,18.82
2022-08-02T20:28:32.050Z,19.01
2022-08-02T20:31:07.017Z,19.03
2022-08-02T20:33:55.365Z,19.16
2022-08-02T20:36:26.761Z,19.36
2022-08-02T20:38:55.491Z,19.56
2022-08-02T20:41:46.346Z,19.78
2022-08-02T20:44:30.603Z,19.87
2022-08-02T20:47:02.170Z,19.73
2022-08-02T20:49:41.429Z,19.50
2022-08-02T20:52:23.593Z,19.29
2022-08-02T20:54:52.524Z,19.04
2022-08-02T20:57:48.970Z,18.88
2022-08-02T21:00:28.931Z,18.79
2022-08-02T21:02:56.955Z,18.78
2022-08-02T21:05:54.027Z,18.79
2022-08-02T21:08:22.248Z,18.86
2022-08-02T21:10:53.408Z,18.85
2022-08-02T21:13:46.633Z,18.79
2022-08-02T21:16:25.043Z,18.92
2022-08-02T21:18:59.764Z,18.97
2022-08-02T21:21:29.805Z,18.98
2022-08-02T21:24:00.244Z,19.04
2022-08-02T21:26:35.492Z,19.16
2022-08-02T21:29:04.473Z,19.20
2022-08-02T21:31:36.103Z,19.30
2022-08-02T21:34:21.686Z,19.27
2022-08-02T21:39:37.111Z,19.58
2022-08-02T21:42:05.309Z,19.39
2022-08-02T21:44:36.621Z,19.50
2022-08-02T21:47:09.569Z,19.38
2022-08-02T21:50:12.841Z,19.24
2022-08-02T21:52:30.499Z,19.43
2022-08-02T21:55:04.255Z,19.65
2022-08-02T21:57:34.773Z,19.76
2022-08-02T22:00:04.472Z,19.63
2022-08-02T22:02:33.475Z,19.47
2022-08-02T22:05:02.673Z,19.61
2022-08-02T22:07:38.207Z,19.60
2022-08-02T22:10:10.254Z,19.52
2022-08-02T22:12:40.350Z,19.27
2022-08-02T22:15:10.693Z,19.08
2022-08-02T22:17:51.349Z,18.92
2022-08-02T22:20:22.269Z,18.72
2022-08-02T22:22:51.466Z,18.56
2022-08-02T22:25:36.650Z,18.39
2022-08-02T22:28:36.060Z,18.13
2022-08-02T22:31:04.655Z,18.01
2022-08-02T22:34:00.811Z,17.86
2022-08-02T22:36:30.159Z,17.72
2022-08-02T22:38:58.470Z,17.60
2022-08-02T22:42:02.010Z,17.49
2022-08-02T22:44:18.519Z,17.37
2022-08-02T22:47:07.506Z,17.28
2022-08-02T22:49:51.924Z,17.32
2022-08-02T22:52:24.389Z,17.31
2022-08-02T22:54:52.515Z,17.34
2022-08-02T22:57:30.677Z,17.37
2022-08-02T22:58:54.483Z,18.30
2022-08-02T23:00:00.135Z,17.57
2022-08-02T23:02:28.443Z,17.78
2022-08-02T23:04:58.344Z,17.86
2022-08-02T23:07:26.390Z,17.93
2022-08-02T23:09:54.471Z,17.95
2022-08-02T23:12:28.479Z,17.95
2022-08-02T23:14:56.452Z,17.89
2022-08-02T23:17:42.123Z,17.78
2022-08-02T23:20:11.288Z,18.02
2022-08-02T23:22:39.356Z,18.27
2022-08-02T23:25:08.860Z,18.58
2022-08-02T23:27:38.307Z,18.53
2022-08-02T23:30:08.259Z,18.60
2022-08-02T23:32:40.099Z,18.59
2022-08-02T23:35:09.334Z,18.70
2022-08-02T23:37:58.877Z,18.85
2022-08-02T23:40:38.946Z,18.84
2022-08-02T23:43:14.271Z,18.83
2022-08-02T23:45:44.586Z,18.87
2022-08-02T23:48:13.066Z,19.02
2022-08-02T23:50:41.191Z,19.22
2022-08-02T23:53:09.207Z,19.11
2022-08-02T23:55:37.184Z,19.12
2022-08-02T23:58:05.136Z,19.12
